sensor_id;sensor_type;location;lat;lon;timestamp;P1;durP1;ratioP1;P2;durP2;ratioP2
77099;SDS011;66039;48.922;2.414;2023-01-01T15:04:37;15.57;;;3.15;;
77099;SDS011;66039;48.922;2.414;2023-01-01T15:07:03;13.30;;;2.92;;
77099;SDS011;66039;48.922;2.414;2023-01-01T15:09:30;16.10;;;3.38;;
77099;SDS011;66039;48.922;2.414;2023-01-01T15:11:57;11.90;;;3.28;;
77099;SDS011;66039;48.922;2.414;2023-01-01T15:14:31;14.95;;;3.58;;
77099;SDS011;66039;48.922;2.414;2023-01-01T15:27:35;8.52;;;3.00;;
77099;SDS011;66039;48.922;2.414;2023-01-01T15:30:01;7.75;;;3.33;;
77099;SDS011;66039;48.922;2.414;2023-01-01T15:32:30;7.32;;;3.22;;
77099;SDS011;66039;48.922;2.414;2023-01-01T16:26:30;9.68;;;5.03;;
77099;SDS011;66039;48.922;2.414;2023-01-01T16:28:56;7.32;;;5.25;;
77099;SDS011;66039;48.922;2.414;2023-01-01T16:31:23;7.70;;;7.00;;
77099;SDS011;66039;48.922;2.414;2023-01-01T16:33:53;9.27;;;6.65;;
77099;SDS011;66039;48.922;2.414;2023-01-01T16:36:21;9.68;;;5.80;;
77099;SDS011;66039;48.922;2.414;2023-01-01T16:38:47;12.43;;;5.25;;
77099;SDS011;66039;48.922;2.414;2023-01-01T16:41:14;13.95;;;5.22;;
77099;SDS011;66039;48.922;2.414;2023-01-01T16:43:44;8.10;;;5.53;;
77099;SDS011;66039;48.922;2.414;2023-01-01T16:46:11;6.13;;;5.20;;
77099;SDS011;66039;48.922;2.414;2023-01-01T16:48:37;5.90;;;5.30;;
77099;SDS011;66039;48.922;2.414;2023-01-01T16:51:06;6.68;;;5.68;;
77099;SDS011;66039;48.922;2.414;2023-01-01T16:53:53;8.18;;;7.30;;
77099;SDS011;66602;48.922;2.414;2023-01-01T16:56:19;11.70;;;5.47;;
77099;SDS011;66602;48.922;2.414;2023-01-01T16:58:46;6.07;;;5.00;;
77099;SDS011;66602;48.922;2.414;2023-01-01T19:04:14;5.03;;;4.60;;
77099;SDS011;66602;48.922;2.414;2023-01-01T19:06:51;7.22;;;5.18;;
77099;SDS011;66602;48.922;2.414;2023-01-01T19:09:25;7.80;;;5.03;;
77099;SDS011;66602;48.922;2.414;2023-01-01T19:11:57;8.07;;;5.50;;
77099;SDS011;66602;48.922;2.414;2023-01-01T19:14:56;6.72;;;5.20;;
77099;SDS011;66602;48.922;2.414;2023-01-01T19:17:29;7.60;;;5.28;;
77099;SDS011;66602;48.922;2.414;2023-01-01T19:19:56;10.02;;;6.07;;
77099;SDS011;66602;48.922;2.414;2023-01-01T19:22:28;8.23;;;5.30;;
77099;SDS011;66602;48.922;2.414;2023-01-01T19:25:00;5.70;;;5.30;;
77099;SDS011;66602;48.922;2.414;2023-01-01T19:27:28;6.72;;;5.85;;
77099;SDS011;66602;48.922;2.414;2023-01-01T19:29:58;8.32;;;5.55;;
77099;SDS011;66602;48.922;2.414;2023-01-01T19:32:27;11.80;;;5.50;;
77099;SDS011;66602;48.922;2.414;2023-01-01T19:34:54;6.07;;;5.47;;
77099;SDS011;66602;48.922;2.414;2023-01-01T19:37:20;7.32;;;5.63;;
77099;SDS011;66602;48.922;2.414;2023-01-01T19:39:47;11.75;;;7.22;;
77099;SDS011;66602;48.922;2.414;2023-01-01T19:42:16;13.82;;;6.40;;
77099;SDS011;66602;48.922;2.414;2023-01-01T19:44:42;5.90;;;5.30;;
77099;SDS011;66602;48.922;2.414;2023-01-01T19:47:08;9.27;;;5.38;;
77099;SDS011;66602;48.922;2.414;2023-01-01T19:49:34;7.68;;;5.15;;
77099;SDS011;66602;48.922;2.414;2023-01-01T19:52:00;8.90;;;5.30;;
77099;SDS011;66602;48.922;2.414;2023-01-01T19:54:27;8.30;;;5.82;;
77099;SDS011;66602;48.922;2.414;2023-01-01T19:56:53;5.35;;;4.93;;
77099;SDS011;66602;48.922;2.414;2023-01-01T19:59:39;5.60;;;4.68;;
77099;SDS011;66602;48.922;2.414;2023-01-01T20:02:06;7.85;;;5.47;;
77099;SDS011;66602;48.922;2.414;2023-01-01T20:04:33;9.57;;;4.93;;
77099;SDS011;66602;48.922;2.414;2023-01-01T20:07:00;5.55;;;5.00;;
77099;SDS011;66602;48.922;2.414;2023-01-01T20:09:26;5.97;;;5.13;;
77099;SDS011;66602;48.922;2.414;2023-01-01T20:11:55;13.05;;;6.10;;
77099;SDS011;66602;48.922;2.414;2023-01-01T20:14:21;4.95;;;4.65;;
77099;SDS011;66602;48.922;2.414;2023-01-01T20:16:47;9.10;;;4.60;;
77099;SDS011;66602;48.922;2.414;2023-01-01T20:19:15;6.18;;;4.75;;
77099;SDS011;66602;48.922;2.414;2023-01-01T20:21:41;8.30;;;4.53;;
77099;SDS011;66602;48.922;2.414;2023-01-01T20:24:27;5.10;;;4.70;;
77099;SDS011;66602;48.922;2.414;2023-01-01T20:26:57;7.60;;;5.82;;
77099;SDS011;66602;48.922;2.414;2023-01-01T20:29:26;6.68;;;4.72;;
77099;SDS011;66602;48.922;2.414;2023-01-01T20:32:59;8.35;;;4.40;;
77099;SDS011;66602;48.922;2.414;2023-01-01T20:35:27;7.47;;;4.43;;
77099;SDS011;66602;48.922;2.414;2023-01-01T20:38:15;7.13;;;3.92;;
77099;SDS011;66602;48.922;2.414;2023-01-01T20:40:41;8.32;;;3.97;;
77099;SDS011;66602;48.922;2.414;2023-01-01T20:43:15;8.38;;;3.88;;
77099;SDS011;66602;48.922;2.414;2023-01-01T20:46:12;9.27;;;4.05;;
77099;SDS011;66602;48.922;2.414;2023-01-01T20:48:38;8.50;;;4.85;;
77099;SDS011;66602;48.922;2.414;2023-01-01T20:51:05;11.18;;;4.53;;
77099;SDS011;66602;48.922;2.414;2023-01-01T20:53:34;14.60;;;5.68;;
77099;SDS011;66602;48.922;2.414;2023-01-01T20:56:02;13.98;;;5.53;;
77099;SDS011;66602;48.922;2.414;2023-01-01T20:58:31;12.65;;;4.75;;
77099;SDS011;66602;48.922;2.414;2023-01-01T21:00:57;6.53;;;4.28;;
77099;SDS011;66602;48.922;2.414;2023-01-01T21:03:31;6.47;;;3.97;;
77099;SDS011;66602;48.922;2.414;2023-01-01T21:06:12;6.53;;;4.20;;
77099;SDS011;66602;48.922;2.414;2023-01-01T21:08:49;3.88;;;3.58;;
77099;SDS011;66602;48.922;2.414;2023-01-01T21:11:20;9.27;;;5.03;;
77099;SDS011;66602;48.922;2.414;2023-01-01T21:13:53;4.65;;;3.90;;
77099;SDS011;66602;48.922;2.414;2023-01-01T21:16:34;13.48;;;4.80;;
77099;SDS011;66602;48.922;2.414;2023-01-01T21:19:41;7.72;;;4.57;;
77099;SDS011;66602;48.922;2.414;2023-01-01T21:22:09;20.85;;;4.75;;
77099;SDS011;66602;48.922;2.414;2023-01-01T21:24:40;9.98;;;4.13;;
77099;SDS011;66602;48.922;2.414;2023-01-01T21:27:16;6.72;;;4.15;;
77099;SDS011;66602;48.922;2.414;2023-01-01T21:29:51;8.27;;;4.10;;
77099;SDS011;66602;48.922;2.414;2023-01-01T21:32:22;6.55;;;5.20;;
77099;SDS011;66602;48.922;2.414;2023-01-01T21:34:53;10.35;;;6.30;;
77099;SDS011;66602;48.922;2.414;2023-01-01T21:40:52;7.75;;;4.65;;
77099;SDS011;66602;48.922;2.414;2023-01-01T21:43:17;6.72;;;4.00;;
77099;SDS011;66602;48.922;2.414;2023-01-01T21:48:35;4.15;;;3.75;;
77099;SDS011;66602;48.922;2.414;2023-01-01T21:51:01;10.40;;;3.90;;
77099;SDS011;66602;48.922;2.414;2023-01-01T21:53:37;3.95;;;3.25;;
77099;SDS011;66602;48.922;2.414;2023-01-01T21:59:21;7.22;;;3.83;;
77099;SDS011;66602;48.922;2.414;2023-01-01T22:04:36;5.93;;;3.40;;
77099;SDS011;66602;48.922;2.414;2023-01-01T22:07:27;6.40;;;3.10;;
77099;SDS011;66602;48.922;2.414;2023-01-01T22:09:58;8.90;;;3.55;;
77099;SDS011;66602;48.922;2.414;2023-01-01T22:12:27;4.68;;;3.05;;
77099;SDS011;66602;48.922;2.414;2023-01-01T22:14:57;7.72;;;3.97;;
77099;SDS011;66602;48.922;2.414;2023-01-01T22:17:33;5.65;;;3.22;;
77099;SDS011;66602;48.922;2.414;2023-01-01T22:22:46;8.73;;;3.85;;
77099;SDS011;66602;48.922;2.414;2023-01-01T22:25:28;4.80;;;3.80;;
77099;SDS011;66602;48.922;2.414;2023-01-01T22:28:04;4.45;;;3.30;;
77099;SDS011;66602;48.922;2.414;2023-01-01T22:30:52;12.10;;;3.17;;
77099;SDS011;66602;48.922;2.414;2023-01-01T22:33:24;8.27;;;3.47;;
77099;SDS011;66602;48.922;2.414;2023-01-01T22:35:54;7.95;;;3.05;;
77099;SDS011;66602;48.922;2.414;2023-01-01T22:38:21;5.60;;;3.00;;
77099;SDS011;66602;48.922;2.414;2023-01-01T22:40:53;8.65;;;3.53;;
77099;SDS011;66602;48.922;2.414;2023-01-01T22:43:25;6.07;;;3.22;;
77099;SDS011;66602;48.922;2.414;2023-01-01T22:45:55;9.63;;;3.00;;
77099;SDS011;66602;48.922;2.414;2023-01-01T22:48:22;4.78;;;3.17;;
77099;SDS011;66602;48.922;2.414;2023-01-01T22:50:58;5.50;;;3.08;;
77099;SDS011;66602;48.922;2.414;2023-01-01T22:53:30;4.55;;;3.28;;
77099;SDS011;66602;48.922;2.414;2023-01-01T22:55:57;3.80;;;3.17;;
77099;SDS011;66602;48.922;2.414;2023-01-01T22:58:23;4.53;;;3.53;;
77099;SDS011;66602;48.922;2.414;2023-01-01T23:00:52;6.32;;;3.17;;
77099;SDS011;66602;48.922;2.414;2023-01-01T23:03:17;6.85;;;4.10;;
77099;SDS011;66602;48.922;2.414;2023-01-01T23:05:43;8.07;;;3.28;;
77099;SDS011;66602;48.922;2.414;2023-01-01T23:08:09;6.47;;;3.10;;
77099;SDS011;66602;48.922;2.414;2023-01-01T23:10:35;7.20;;;3.22;;
77099;SDS011;66602;48.922;2.414;2023-01-01T23:13:01;6.68;;;3.08;;
77099;SDS011;66602;48.922;2.414;2023-01-01T23:15:48;5.70;;;3.05;;
77099;SDS011;66602;48.922;2.414;2023-01-01T23:18:31;3.05;;;2.72;;
77099;SDS011;66602;48.922;2.414;2023-01-01T23:21:02;4.88;;;3.40;;
77099;SDS011;66602;48.922;2.414;2023-01-01T23:23:31;8.02;;;3.10;;
77099;SDS011;66602;48.922;2.414;2023-01-01T23:25:59;7.72;;;4.18;;
77099;SDS011;66602;48.922;2.414;2023-01-01T23:28:28;2.95;;;2.63;;
77099;SDS011;66602;48.922;2.414;2023-01-01T23:30:58;6.65;;;3.00;;
77099;SDS011;66602;48.922;2.414;2023-01-01T23:33:28;3.35;;;3.05;;
77099;SDS011;66602;48.922;2.414;2023-01-01T23:35:56;10.07;;;3.17;;
77099;SDS011;66602;48.922;2.414;2023-01-01T23:38:23;5.07;;;2.47;;
77099;SDS011;66602;48.922;2.414;2023-01-01T23:40:49;5.18;;;2.65;;
77099;SDS011;66602;48.922;2.414;2023-01-01T23:43:18;5.32;;;3.88;;
77099;SDS011;66602;48.922;2.414;2023-01-01T23:46:05;7.72;;;3.30;;
77099;SDS011;66602;48.922;2.414;2023-01-01T23:48:40;6.30;;;2.17;;
77099;SDS011;66602;48.922;2.414;2023-01-01T23:51:11;4.65;;;2.50;;
77099;SDS011;66602;48.922;2.414;2023-01-01T23:53:43;5.43;;;2.58;;
77099;SDS011;66602;48.922;2.414;2023-01-01T23:56:35;4.80;;;2.38;;
77099;SDS011;66602;48.922;2.414;2023-01-01T23:59:15;5.63;;;2.40;;
